createdAt,value
2023-02-03T00:02:02.936Z,5.1
2023-02-03T00:05:02.872Z,6.4
2023-02-03T00:08:03.042Z,7.8
2023-02-03T00:11:02.889Z,7.8
2023-02-03T00:14:02.899Z,8.4
2023-02-03T00:17:02.905Z,8.8
2023-02-03T00:20:02.911Z,9.7
2023-02-03T00:23:02.916Z,10.4
2023-02-03T00:26:02.949Z,11.1
2023-02-03T00:29:02.931Z,10.8
2023-02-03T00:32:03.025Z,10.8
2023-02-03T00:35:02.957Z,10.5
2023-02-03T00:38:02.957Z,10.2
2023-02-03T00:41:02.968Z,12
2023-02-03T00:44:02.993Z,11.6
2023-02-03T00:47:02.977Z,11.4
2023-02-03T00:50:02.977Z,11
2023-02-03T00:53:03.005Z,10.6
2023-02-03T00:56:02.988Z,10.4
2023-02-03T00:59:02.996Z,10.2
2023-02-03T01:02:03.086Z,10.7
2023-02-03T01:05:03.009Z,10.8
2023-02-03T01:08:03.014Z,11.4
2023-02-03T01:11:03.023Z,11.9
2023-02-03T01:14:03.033Z,11.8
2023-02-03T01:17:03.159Z,12.6
2023-02-03T01:20:03.070Z,13.2
2023-02-03T01:23:03.056Z,14.1
2023-02-03T01:26:03.063Z,14.8
2023-02-03T01:29:03.075Z,15.9
2023-02-03T01:32:03.206Z,16.2
2023-02-03T01:35:03.088Z,17.4
2023-02-03T01:38:03.115Z,18
2023-02-03T01:41:03.104Z,18.9
2023-02-03T01:44:03.112Z,18.8
2023-02-03T01:47:03.134Z,19.4
2023-02-03T01:50:03.130Z,19.6
2023-02-03T01:53:03.146Z,19.5
2023-02-03T01:56:03.172Z,21
2023-02-03T01:59:03.163Z,21
2023-02-03T02:02:03.164Z,21.8
2023-02-03T02:05:03.160Z,23.3
2023-02-03T02:08:03.166Z,24.2
2023-02-03T02:11:03.174Z,26.1
2023-02-03T02:14:03.208Z,27.8
2023-02-03T02:17:03.187Z,29.4
2023-02-03T02:20:03.198Z,29.1
2023-02-03T02:23:03.204Z,28.9
2023-02-03T02:26:03.213Z,29.3
2023-02-03T02:29:03.220Z,27.5
2023-02-03T02:32:03.291Z,25.5
2023-02-03T02:35:03.233Z,26
2023-02-03T02:38:03.248Z,24.6
2023-02-03T02:41:03.244Z,24.6
2023-02-03T02:44:03.246Z,23.1
2023-02-03T02:47:03.262Z,23.4
2023-02-03T02:50:03.282Z,23
2023-02-03T02:53:03.256Z,23.4
2023-02-03T02:56:03.271Z,22.2
2023-02-03T02:59:03.273Z,22.4
2023-02-03T03:02:03.280Z,22.2
2023-02-03T03:05:03.305Z,20.9
2023-02-03T03:08:03.308Z,21.1
2023-02-03T03:11:03.292Z,20.7
2023-02-03T03:14:03.297Z,20
2023-02-03T03:17:03.314Z,19
2023-02-03T03:20:03.292Z,17.4
2023-02-03T03:23:03.305Z,16.6
2023-02-03T03:26:03.335Z,16
2023-02-03T03:29:03.313Z,15.6
2023-02-03T03:32:03.430Z,15.3
2023-02-03T03:35:03.318Z,14.8
2023-02-03T03:38:03.346Z,14.3
2023-02-03T03:41:03.332Z,14.9
2023-02-03T03:44:03.361Z,13.8
2023-02-03T03:47:03.348Z,13.6
2023-02-03T03:50:03.343Z,13.9
2023-02-03T03:53:03.344Z,13.2
2023-02-03T03:56:03.356Z,13.2
2023-02-03T03:59:03.359Z,13.5
2023-02-03T04:02:03.489Z,13.1
2023-02-03T04:05:03.357Z,12
2023-02-03T04:08:03.367Z,12
2023-02-03T04:11:03.373Z,11.8
2023-02-03T04:14:03.391Z,12.2
2023-02-03T04:17:03.395Z,11.3
2023-02-03T04:20:03.416Z,11.2
2023-02-03T04:23:03.395Z,11.3
2023-02-03T04:26:03.393Z,11.1
2023-02-03T04:29:03.399Z,11
2023-02-03T04:32:03.438Z,11.1
2023-02-03T04:35:03.405Z,10.8
2023-02-03T04:38:03.438Z,10.2
2023-02-03T04:41:03.489Z,9.9
2023-02-03T04:44:03.420Z,9.8
2023-02-03T04:47:03.422Z,9.5
2023-02-03T04:50:03.445Z,9.3
2023-02-03T04:53:03.427Z,9.4
2023-02-03T04:56:03.460Z,8.8
2023-02-03T04:59:03.440Z,9.1
2023-02-03T05:02:03.441Z,8.8
2023-02-03T05:05:03.447Z,8.5
2023-02-03T05:08:03.449Z,8.5
2023-02-03T05:11:04.285Z,8.3
2023-02-03T05:14:03.483Z,8.4
2023-02-03T05:17:03.461Z,7.9
2023-02-03T05:20:03.468Z,8
2023-02-03T05:23:03.471Z,8.1
2023-02-03T05:26:03.491Z,7.8
2023-02-03T05:29:03.496Z,7.9
2023-02-03T05:32:03.652Z,7.5
2023-02-03T05:35:03.494Z,7.4
2023-02-03T05:38:03.496Z,7.8
2023-02-03T05:41:03.574Z,7.4
2023-02-03T05:44:03.506Z,7.1
2023-02-03T05:47:03.512Z,7
2023-02-03T05:50:03.539Z,7.4
2023-02-03T05:53:03.521Z,7.2
2023-02-03T05:56:03.530Z,7.7
2023-02-03T05:59:03.536Z,7.3
2023-02-03T06:02:03.541Z,7.8
2023-02-03T06:05:03.540Z,7.9
2023-02-03T06:08:03.568Z,7.7
2023-02-03T06:11:03.541Z,7.6
2023-02-03T06:14:03.552Z,7.6
2023-02-03T06:17:03.593Z,7.3
2023-02-03T06:20:03.556Z,7.2
2023-02-03T06:23:03.611Z,7
2023-02-03T06:26:03.617Z,7
2023-02-03T06:29:03.579Z,7.3
2023-02-03T06:32:03.683Z,6.8
2023-02-03T06:35:03.577Z,7.2
2023-02-03T06:38:03.581Z,6.5
2023-02-03T06:41:03.599Z,6.8
2023-02-03T06:44:03.613Z,7
2023-02-03T06:47:03.593Z,7.3
2023-02-03T06:50:03.601Z,7.4
2023-02-03T06:53:03.638Z,7.4
2023-02-03T06:56:03.610Z,7.4
2023-02-03T06:59:03.615Z,7.1
2023-02-03T07:02:03.740Z,7.3
2023-02-03T07:05:03.624Z,6.7
2023-02-03T07:08:03.620Z,7
2023-02-03T07:11:03.631Z,6.3
2023-02-03T07:14:03.625Z,5.8
2023-02-03T07:17:03.628Z,5.5
2023-02-03T07:20:03.676Z,6
2023-02-03T07:23:03.649Z,5.8
2023-02-03T07:26:03.661Z,5.6
2023-02-03T07:29:03.654Z,5.7
2023-02-03T07:32:03.816Z,5.1
2023-02-03T07:35:03.665Z,5.2
2023-02-03T07:38:03.702Z,5.2
2023-02-03T07:41:03.671Z,5
2023-02-03T07:44:03.679Z,5
2023-02-03T07:47:03.689Z,5.2
2023-02-03T07:50:03.688Z,5.1
2023-02-03T07:53:03.686Z,5.7
2023-02-03T07:56:03.718Z,5.7
2023-02-03T07:59:03.695Z,5.6
2023-02-03T08:02:03.737Z,5.7
2023-02-03T08:05:03.785Z,5.4
2023-02-03T08:08:03.713Z,5.3
2023-02-03T08:11:03.719Z,5.5
2023-02-03T08:14:03.739Z,5.4
2023-02-03T08:17:03.729Z,5.2
2023-02-03T08:20:03.726Z,4.7
2023-02-03T08:23:03.745Z,4.7
2023-02-03T08:26:03.739Z,4.7
2023-02-03T08:29:03.738Z,4.6
2023-02-03T08:32:05.320Z,4.5
2023-02-03T08:35:03.759Z,4.6
2023-02-03T08:38:03.749Z,4.6
2023-02-03T08:41:03.760Z,4.6
2023-02-03T08:44:03.767Z,4.8
2023-02-03T08:47:03.777Z,5.3
2023-02-03T08:50:03.816Z,5.4
2023-02-03T08:53:03.779Z,5.7
2023-02-03T08:56:03.775Z,6
2023-02-03T08:59:03.779Z,5.9
2023-02-03T09:02:03.778Z,5.9
2023-02-03T09:05:03.860Z,5.9
2023-02-03T09:08:03.809Z,5.6
2023-02-03T09:11:03.799Z,5.2
2023-02-03T09:14:04.937Z,5.1
2023-02-03T09:17:03.800Z,5
2023-02-03T09:20:03.865Z,4.8
2023-02-03T09:23:03.815Z,4.7
2023-02-03T09:26:03.845Z,4.4
2023-02-03T09:29:03.827Z,4.4
2023-02-03T09:32:03.843Z,4.2
2023-02-03T09:35:03.820Z,4.4
2023-02-03T09:38:03.828Z,4.7
2023-02-03T09:41:11.481Z,4.5
2023-02-03T09:44:03.862Z,4.4
2023-02-03T09:47:03.841Z,4.2
2023-02-03T09:50:03.853Z,4.5
2023-02-03T09:53:03.846Z,4.5
2023-02-03T09:56:03.853Z,4.7
2023-02-03T09:59:04.041Z,4.7
2023-02-03T10:02:03.917Z,4.5
2023-02-03T10:05:03.858Z,4.2
2023-02-03T10:08:03.863Z,4
2023-02-03T10:11:03.902Z,4.1
2023-02-03T10:14:03.874Z,4.2
2023-02-03T10:17:03.915Z,4.3
2023-02-03T10:20:03.912Z,4.1
2023-02-03T10:23:03.888Z,4.3
2023-02-03T10:26:03.884Z,4
2023-02-03T10:29:03.886Z,4.4
2023-02-03T10:32:04.011Z,4.1
2023-02-03T10:35:03.892Z,3.1
2023-02-03T10:38:03.920Z,2.2
2023-02-03T10:41:03.980Z,1.9
2023-02-03T10:44:03.903Z,1.8
2023-02-03T10:47:03.913Z,1.9
2023-02-03T10:50:03.912Z,2.3
2023-02-03T10:53:03.913Z,2.2
2023-02-03T10:56:03.955Z,2.5
2023-02-03T10:59:03.931Z,3
2023-02-03T11:02:03.940Z,3
2023-02-03T11:05:03.935Z,2.9
2023-02-03T11:08:03.941Z,2.5
2023-02-03T11:11:03.990Z,2.7
2023-02-03T11:14:04.017Z,2.7
2023-02-03T11:17:03.953Z,2.9
2023-02-03T11:20:03.960Z,3
2023-02-03T11:23:03.963Z,2.5
2023-02-03T11:26:03.967Z,3.1
2023-02-03T11:29:03.978Z,3.2
2023-02-03T11:32:04.111Z,3
2023-02-03T11:35:03.991Z,3.3
2023-02-03T11:38:03.983Z,3.3
2023-02-03T11:41:03.990Z,3.4
2023-02-03T11:44:03.995Z,3.3
2023-02-03T11:47:04.027Z,3.2
2023-02-03T11:50:04.072Z,3.4
2023-02-03T11:53:04.016Z,3.4
2023-02-03T11:56:04.010Z,3.6
2023-02-03T11:59:04.012Z,3.9
2023-02-03T12:02:04.021Z,3.8
2023-02-03T12:05:04.036Z,4.1
2023-02-03T12:08:04.069Z,3.9
2023-02-03T12:11:04.047Z,3.8
2023-02-03T12:14:04.032Z,3.5
2023-02-03T12:17:04.039Z,4.1
2023-02-03T12:20:04.042Z,4.2
2023-02-03T12:23:04.049Z,3.8
2023-02-03T12:26:04.098Z,3.9
2023-02-03T12:29:04.061Z,3.6
2023-02-03T12:32:04.084Z,4
2023-02-03T12:35:04.070Z,4
2023-02-03T12:38:04.071Z,3.8
2023-02-03T12:41:04.083Z,3.5
2023-02-03T12:44:04.102Z,4.3
2023-02-03T12:47:04.078Z,4.3
2023-02-03T12:50:04.096Z,4.1
2023-02-03T12:53:04.084Z,4.1
2023-02-03T12:56:04.100Z,4.3
2023-02-03T12:59:04.098Z,3.7
2023-02-03T13:02:04.156Z,3.6
2023-02-03T13:05:04.100Z,4.1
2023-02-03T13:08:04.108Z,3.6
2023-02-03T13:11:04.106Z,4.2
2023-02-03T13:14:04.118Z,3.8
2023-02-03T13:17:04.110Z,4
2023-02-03T13:20:04.138Z,4
2023-02-03T13:23:04.114Z,4
2023-02-03T13:26:04.116Z,3.5
2023-02-03T13:29:04.122Z,3.6
2023-02-03T13:32:04.229Z,3.8
2023-02-03T13:35:04.125Z,3.6
2023-02-03T13:38:04.156Z,4
2023-02-03T13:41:04.133Z,3.6
2023-02-03T13:44:04.134Z,3.7
2023-02-03T13:47:04.133Z,3.7
2023-02-03T13:50:04.145Z,3.7
2023-02-03T13:53:04.147Z,3.9
2023-02-03T13:56:04.173Z,3.6
2023-02-03T13:59:04.141Z,3.9
2023-02-03T14:02:04.144Z,4.1
2023-02-03T14:05:04.291Z,3.8
2023-02-03T14:08:04.144Z,3.9
2023-02-03T14:11:04.148Z,3.9
2023-02-03T14:14:04.186Z,3.7
2023-02-03T14:17:04.182Z,3.9
2023-02-03T14:20:04.174Z,3.3
2023-02-03T14:23:04.184Z,3.8
2023-02-03T14:26:04.188Z,3.6
2023-02-03T14:29:04.195Z,3.5
2023-02-03T14:32:04.306Z,3.9
2023-02-03T14:35:04.220Z,3.6
2023-02-03T14:38:04.234Z,3.4
2023-02-03T14:41:04.237Z,3.6
2023-02-03T14:44:04.296Z,3.6
2023-02-03T14:47:04.246Z,3.4
2023-02-03T14:50:04.302Z,3.5
2023-02-03T14:53:04.262Z,3.3
2023-02-03T14:56:04.271Z,3.3
2023-02-03T14:59:04.273Z,3.3
2023-02-03T15:02:04.289Z,3.2
2023-02-03T15:05:04.388Z,3.4
2023-02-03T15:08:04.318Z,3.3
2023-02-03T15:11:04.314Z,3.1
2023-02-03T15:14:04.320Z,3.2
2023-02-03T15:17:04.322Z,3.4
2023-02-03T15:20:04.323Z,3.4
2023-02-03T15:23:04.340Z,3.2
2023-02-03T15:26:04.358Z,3.4
2023-02-03T15:29:04.360Z,3.6
2023-02-03T15:32:04.508Z,3.6
2023-02-03T15:35:04.352Z,3.4
2023-02-03T15:38:04.355Z,3.4
2023-02-03T15:41:04.363Z,3.6
2023-02-03T15:44:04.409Z,3.6
2023-02-03T15:47:04.470Z,4.4
2023-02-03T15:50:04.390Z,3.6
2023-02-03T15:53:04.383Z,4.1
2023-02-03T15:56:04.383Z,4.1
2023-02-03T15:59:04.385Z,4.1
2023-02-03T16:02:04.445Z,3.6
2023-02-03T16:05:04.396Z,3.8
2023-02-03T16:08:04.389Z,4
2023-02-03T16:11:04.401Z,3.7
2023-02-03T16:14:04.409Z,3.7
2023-02-03T16:17:06.206Z,4.2
2023-02-03T16:20:04.507Z,4
2023-02-03T16:23:04.422Z,4
2023-02-03T16:26:04.420Z,4
2023-02-03T16:29:04.423Z,4.2
2023-02-03T16:32:04.477Z,4
2023-02-03T16:35:04.443Z,3.8
2023-02-03T16:38:04.457Z,4.1
2023-02-03T16:41:04.444Z,4
2023-02-03T16:44:04.443Z,3.7
2023-02-03T16:47:04.648Z,4
2023-02-03T16:50:04.450Z,3.7
2023-02-03T16:53:04.465Z,3.9
2023-02-03T16:56:04.555Z,4
2023-02-03T16:59:04.479Z,3.5
2023-02-03T17:02:04.520Z,4.1
2023-02-03T17:05:04.483Z,3.9
2023-02-03T17:08:04.494Z,3.7
2023-02-03T17:11:04.528Z,3.6
2023-02-03T17:14:04.527Z,4.1
2023-02-03T17:17:04.513Z,3.7
2023-02-03T17:20:04.511Z,4
2023-02-03T17:23:04.517Z,4.2
2023-02-03T17:26:04.529Z,4
2023-02-03T17:29:04.533Z,3.6
2023-02-03T17:32:04.588Z,4
2023-02-03T17:35:04.540Z,3.7
2023-02-03T17:38:04.529Z,3.9
2023-02-03T17:56:04.584Z,4.1
2023-02-03T17:59:04.559Z,4
2023-02-03T18:02:04.618Z,3.7
2023-02-03T18:05:04.564Z,3.3
2023-02-03T18:08:08.975Z,3.8
2023-02-03T18:11:04.573Z,3.7
2023-02-03T18:14:04.590Z,4.2
2023-02-03T18:17:04.572Z,3.2
2023-02-03T18:20:04.569Z,3.6
2023-02-03T18:23:04.568Z,3.5
2023-02-03T18:26:04.570Z,3.6
2023-02-03T18:29:04.588Z,3.8
2023-02-03T18:32:04.610Z,4
2023-02-03T18:35:04.579Z,4
2023-02-03T18:38:04.588Z,4.3
2023-02-03T18:41:04.596Z,4
2023-02-03T18:44:04.615Z,4.3
2023-02-03T18:47:04.619Z,4
2023-02-03T18:50:04.657Z,4.2
2023-02-03T18:53:04.632Z,4.2
2023-02-03T18:56:04.635Z,4.2
2023-02-03T18:59:04.648Z,4.6
2023-02-03T19:02:04.643Z,4.8
2023-02-03T19:05:04.648Z,4.8
2023-02-03T19:08:04.681Z,4.4
2023-02-03T19:11:04.656Z,4.7
2023-02-03T19:14:04.676Z,4.4
2023-02-03T19:17:04.670Z,4.9
2023-02-03T19:20:04.674Z,4.6
2023-02-03T19:23:04.690Z,4.4
2023-02-03T19:26:04.720Z,4.5
2023-02-03T19:29:04.694Z,4.7
2023-02-03T19:32:04.795Z,4.3
2023-02-03T19:35:04.705Z,5
2023-02-03T19:38:04.706Z,4.9
2023-02-03T19:41:04.716Z,4.7
2023-02-03T19:44:04.732Z,5.1
2023-02-03T19:47:04.721Z,4.7
2023-02-03T19:50:04.809Z,4.9
2023-02-03T19:53:04.737Z,4.9
2023-02-03T19:56:04.733Z,5
2023-02-03T19:59:04.739Z,4.8
2023-02-03T20:02:13.613Z,4.8
2023-02-03T20:05:04.788Z,4.7
2023-02-03T20:08:04.764Z,5.4
2023-02-03T20:11:04.765Z,5.3
2023-02-03T20:14:04.777Z,5.8
2023-02-03T20:17:04.769Z,5.2
2023-02-03T20:20:04.797Z,5.5
2023-02-03T20:23:04.777Z,5
2023-02-03T20:26:04.784Z,5.2
2023-02-03T20:29:04.790Z,5.5
2023-02-03T20:32:04.862Z,4.9
2023-02-03T20:35:04.828Z,5
2023-02-03T20:38:04.831Z,5
2023-02-03T20:41:04.804Z,4.9
2023-02-03T20:44:04.813Z,5.1
2023-02-03T20:47:04.816Z,4.3
2023-02-03T20:50:04.827Z,4.1
2023-02-03T20:53:04.828Z,4.1
2023-02-03T20:56:04.862Z,4
2023-02-03T20:59:04.848Z,3.9
2023-02-03T21:02:04.868Z,3.4
2023-02-03T21:05:04.857Z,4
2023-02-03T21:08:04.863Z,3.6
2023-02-03T21:11:04.868Z,4.6
2023-02-03T21:14:06.291Z,4.1
2023-02-03T21:17:04.887Z,3.9
2023-02-03T21:20:04.892Z,3.6
2023-02-03T21:23:04.889Z,3.4
2023-02-03T21:26:04.899Z,3.5
2023-02-03T21:29:04.914Z,3.5
2023-02-03T21:32:05.012Z,3.3
2023-02-03T21:35:04.918Z,2.7
2023-02-03T21:38:04.916Z,3.3
2023-02-03T21:41:04.924Z,3.2
2023-02-03T21:44:04.965Z,3.8
2023-02-03T21:47:04.983Z,3.5
2023-02-03T21:50:04.952Z,3
2023-02-03T21:53:04.935Z,3.5
2023-02-03T21:56:04.949Z,3.3
2023-02-03T21:59:04.960Z,3.5
2023-02-03T22:02:04.950Z,3
2023-02-03T22:05:04.955Z,3.1
2023-02-03T22:08:04.986Z,3.6
2023-02-03T22:11:04.963Z,3.1
2023-02-03T22:14:04.961Z,3.6
2023-02-03T22:17:04.968Z,3.6
2023-02-03T22:20:04.969Z,3.3
2023-02-03T22:23:04.971Z,3.1
2023-02-03T22:26:05.001Z,3.4
2023-02-03T22:29:04.976Z,3
2023-02-03T22:32:04.996Z,3
2023-02-03T22:35:04.988Z,3.2
2023-02-03T22:38:04.992Z,3.4
2023-02-03T22:41:04.994Z,3.4
2023-02-03T22:44:05.019Z,2.9
2023-02-03T22:47:05.015Z,3.2
2023-02-03T22:50:05.015Z,3.2
2023-02-03T22:53:05.030Z,3.3
2023-02-03T22:56:05.014Z,1.7
2023-02-03T22:59:05.018Z,1.7
2023-02-03T23:02:05.060Z,1.8
2023-02-03T23:05:05.092Z,1.9
2023-02-03T23:08:05.041Z,1.8
2023-02-03T23:11:05.045Z,1.8
2023-02-03T23:14:05.041Z,1.7
2023-02-03T23:17:05.053Z,1.8
2023-02-03T23:20:05.078Z,1.7
2023-02-03T23:23:05.054Z,1.5
2023-02-03T23:26:05.062Z,2
2023-02-03T23:29:05.063Z,2
2023-02-03T23:32:05.080Z,2
2023-02-03T23:35:05.083Z,1.7
2023-02-03T23:38:05.112Z,1.7
2023-02-03T23:41:05.094Z,1.7
2023-02-03T23:44:05.095Z,1.6
2023-02-03T23:47:05.107Z,1.9
2023-02-03T23:50:05.094Z,1.7
2023-02-03T23:53:05.099Z,1.8
2023-02-03T23:56:05.128Z,1.8
2023-02-03T23:59:05.107Z,1.8
